createdAt,value
2023-04-19T00:00:09.766Z,8.20
2023-04-19T00:02:40.362Z,8.20
2023-04-19T00:05:10.010Z,8.30
2023-04-19T00:07:38.121Z,8.30
2023-04-19T00:10:06.443Z,8.30
2023-04-19T00:12:34.497Z,8.30
2023-04-19T00:15:02.571Z,8.30
2023-04-19T00:17:33.158Z,8.30
2023-04-19T00:20:05.163Z,8.30
2023-04-19T00:22:36.596Z,8.30
2023-04-19T00:25:05.211Z,8.30
2023-04-19T00:27:33.398Z,8.30
2023-04-19T00:30:02.702Z,8.30
2023-04-19T00:32:32.548Z,8.30
2023-04-19T00:35:00.648Z,8.30
2023-04-19T00:37:28.693Z,8.30
2023-04-19T00:39:56.837Z,8.30
2023-04-19T00:42:24.863Z,8.20
2023-04-19T00:44:53.035Z,8.20
2023-04-19T00:47:21.858Z,8.10
2023-04-19T00:49:50.257Z,8.00
2023-04-19T00:52:18.336Z,7.90
2023-04-19T00:54:46.553Z,7.70
2023-04-19T00:57:14.689Z,7.70
2023-04-19T00:59:42.790Z,7.70
2023-04-19T01:02:11.141Z,7.60
2023-04-19T01:04:39.367Z,7.50
2023-04-19T01:07:08.293Z,7.50
2023-04-19T01:09:36.404Z,7.50
2023-04-19T01:12:04.801Z,7.50
2023-04-19T01:14:32.897Z,7.50
2023-04-19T01:17:01.087Z,7.50
2023-04-19T01:19:29.219Z,7.50
2023-04-19T01:21:59.594Z,7.60
2023-04-19T01:24:27.666Z,7.60
2023-04-19T01:26:55.705Z,7.60
2023-04-19T01:29:23.826Z,7.60
2023-04-19T01:31:55.088Z,7.60
2023-04-19T01:34:24.493Z,7.60
2023-04-19T01:36:52.782Z,7.70
2023-04-19T01:39:20.862Z,7.70
2023-04-19T01:41:48.917Z,7.70
2023-04-19T01:44:17.143Z,7.70
2023-04-19T01:46:45.343Z,7.80
2023-04-19T01:49:13.985Z,7.80
2023-04-19T01:51:44.118Z,7.80
2023-04-19T01:54:14.168Z,7.80
2023-04-19T01:56:42.626Z,7.80
2023-04-19T02:03:19.281Z,7.80
2023-04-19T02:05:48.244Z,7.90
2023-04-19T02:08:16.392Z,7.80
2023-04-19T02:10:44.564Z,7.80
2023-04-19T02:13:12.619Z,7.70
2023-04-19T02:15:40.664Z,7.70
2023-04-19T02:18:09.442Z,7.60
2023-04-19T02:20:37.457Z,7.60
2023-04-19T02:23:05.549Z,7.50
2023-04-19T02:25:35.282Z,7.40
2023-04-19T02:28:03.440Z,7.30
2023-04-19T02:30:31.948Z,7.20
2023-04-19T02:33:00.845Z,7.20
2023-04-19T02:35:28.962Z,7.10
2023-04-19T02:37:59.764Z,7.10
2023-04-19T02:40:27.903Z,7.10
2023-04-19T02:42:55.944Z,7.10
2023-04-19T02:45:24.252Z,7.10
2023-04-19T02:47:52.314Z,7.10
2023-04-19T02:50:20.532Z,7.10
2023-04-19T02:52:51.609Z,7.10
2023-04-19T02:55:21.359Z,7.10
2023-04-19T02:57:56.029Z,7.10
2023-04-19T03:00:24.157Z,7.10
2023-04-19T03:03:05.868Z,7.10
2023-04-19T03:05:34.959Z,7.00
2023-04-19T03:08:03.210Z,7.00
2023-04-19T03:10:31.261Z,6.90
2023-04-19T03:12:59.278Z,6.80
2023-04-19T03:15:27.686Z,6.70
2023-04-19T03:17:56.050Z,6.70
2023-04-19T03:20:24.396Z,6.80
2023-04-19T03:22:52.759Z,6.80
2023-04-19T03:25:21.867Z,6.80
2023-04-19T03:27:57.956Z,6.80
2023-04-19T03:30:46.026Z,6.80
2023-04-19T03:33:14.131Z,6.70
2023-04-19T03:35:42.528Z,6.80
2023-04-19T03:38:12.775Z,6.80
2023-04-19T03:40:41.218Z,6.70
2023-04-19T03:43:12.275Z,6.70
2023-04-19T03:45:40.852Z,6.70
2023-04-19T03:48:09.241Z,6.70
2023-04-19T03:50:37.442Z,6.70
2023-04-19T03:53:07.058Z,6.70
2023-04-19T03:55:38.742Z,6.70
2023-04-19T03:58:09.104Z,6.60
2023-04-19T04:00:48.841Z,6.60
2023-04-19T04:03:17.340Z,6.50
2023-04-19T04:05:46.072Z,6.50
2023-04-19T04:08:15.362Z,6.50
2023-04-19T04:10:43.632Z,6.50
2023-04-19T04:13:12.383Z,6.40
2023-04-19T04:15:48.271Z,6.30
2023-04-19T04:18:18.467Z,6.30
2023-04-19T04:20:47.016Z,6.20
2023-04-19T04:23:15.713Z,6.20
2023-04-19T04:25:49.073Z,6.20
2023-04-19T04:28:17.678Z,6.20
2023-04-19T04:30:46.321Z,6.20
2023-04-19T04:33:15.300Z,6.20
2023-04-19T04:35:46.461Z,6.30
2023-04-19T04:38:24.533Z,6.40
2023-04-19T04:40:54.969Z,6.50
2023-04-19T04:43:24.144Z,6.60
2023-04-19T04:45:56.792Z,6.70
2023-04-19T04:48:27.489Z,6.70
2023-04-19T04:50:55.603Z,6.80
2023-04-19T04:53:27.664Z,6.80
2023-04-19T04:55:56.607Z,6.80
2023-04-19T04:58:25.060Z,6.80
2023-04-19T05:01:02.094Z,6.90
2023-04-19T05:03:32.812Z,6.80
2023-04-19T05:06:04.179Z,6.90
2023-04-19T05:08:32.887Z,6.90
2023-04-19T05:11:13.985Z,6.90
2023-04-19T05:13:43.138Z,6.90
2023-04-19T05:16:11.421Z,6.90
2023-04-19T05:18:42.468Z,6.90
2023-04-19T05:21:11.799Z,7.00
2023-04-19T05:23:40.977Z,7.10
2023-04-19T05:26:14.505Z,7.10
2023-04-19T05:28:47.196Z,7.20
2023-04-19T05:31:22.848Z,7.30
2023-04-19T05:34:08.287Z,7.30
2023-04-19T05:36:36.499Z,7.30
2023-04-19T05:39:04.624Z,7.40
2023-04-19T05:41:32.689Z,7.60
2023-04-19T05:44:00.775Z,7.70
2023-04-19T05:46:29.005Z,7.80
2023-04-19T05:48:58.219Z,7.90
2023-04-19T05:51:29.509Z,8.00
2023-04-19T05:54:07.172Z,8.10
2023-04-19T05:56:35.247Z,8.10
2023-04-19T05:59:03.571Z,8.20
2023-04-19T06:01:31.754Z,8.30
2023-04-19T06:03:59.932Z,8.30
2023-04-19T06:06:28.809Z,8.30
2023-04-19T06:08:57.039Z,8.40
2023-04-19T06:11:31.728Z,8.40
2023-04-19T06:14:03.921Z,8.40
2023-04-19T06:16:41.799Z,8.50
2023-04-19T06:19:10.020Z,8.50
2023-04-19T06:21:38.110Z,8.60
2023-04-19T06:24:07.459Z,8.70
2023-04-19T06:26:35.531Z,8.70
2023-04-19T06:29:03.544Z,8.80
2023-04-19T06:31:31.665Z,8.90
2023-04-19T06:33:59.908Z,8.90
2023-04-19T06:36:28.311Z,8.90
2023-04-19T06:38:56.802Z,8.90
2023-04-19T06:41:25.160Z,8.90
2023-04-19T06:43:53.222Z,9.00
2023-04-19T06:46:21.331Z,9.00
2023-04-19T06:48:49.384Z,9.00
2023-04-19T06:51:17.458Z,9.00
2023-04-19T06:53:46.085Z,9.10
2023-04-19T06:56:14.975Z,9.10
2023-04-19T06:58:42.988Z,9.10
2023-04-19T07:01:11.037Z,9.10
2023-04-19T07:03:39.184Z,9.10
2023-04-19T07:06:07.730Z,9.20
2023-04-19T07:08:48.731Z,9.20
2023-04-19T07:11:19.271Z,9.30
2023-04-19T07:13:48.365Z,9.40
2023-04-19T07:16:16.656Z,9.40
2023-04-19T07:18:45.325Z,9.50
2023-04-19T07:21:13.500Z,9.60
2023-04-19T07:23:41.588Z,9.60
2023-04-19T07:26:09.894Z,9.60
2023-04-19T07:28:37.951Z,9.70
2023-04-19T07:31:06.022Z,9.70
2023-04-19T07:33:34.092Z,9.70
2023-04-19T07:36:02.272Z,9.70
2023-04-19T07:38:30.596Z,9.80
2023-04-19T07:41:00.910Z,9.70
2023-04-19T07:43:33.923Z,9.70
2023-04-19T07:46:02.547Z,9.70
2023-04-19T07:48:30.996Z,9.60
2023-04-19T07:50:59.046Z,9.60
2023-04-19T07:53:27.141Z,9.50
2023-04-19T07:55:55.200Z,9.50
2023-04-19T07:58:23.198Z,9.50
2023-04-19T08:00:51.254Z,9.50
2023-04-19T08:03:19.407Z,9.50
2023-04-19T08:05:47.827Z,9.50
2023-04-19T08:08:15.950Z,9.40
2023-04-19T08:10:44.315Z,9.50
2023-04-19T08:13:12.544Z,9.40
2023-04-19T08:18:11.631Z,9.40
2023-04-19T08:20:39.729Z,9.30
2023-04-19T08:23:20.706Z,9.20
2023-04-19T08:25:52.616Z,9.50
2023-04-19T08:28:20.907Z,9.60
2023-04-19T08:30:49.234Z,9.60
2023-04-19T08:33:17.578Z,9.60
2023-04-19T08:35:46.960Z,9.60
2023-04-19T08:38:15.117Z,9.60
2023-04-19T08:40:47.216Z,9.60
2023-04-19T08:43:15.674Z,9.60
2023-04-19T08:45:43.993Z,9.60
2023-04-19T08:48:13.197Z,9.60
2023-04-19T08:51:00.498Z,9.50
2023-04-19T08:53:31.890Z,9.50
2023-04-19T09:01:12.856Z,9.20
2023-04-19T09:04:01.150Z,9.20
2023-04-19T09:06:39.196Z,9.30
2023-04-19T09:09:34.820Z,9.50
2023-04-19T09:12:05.161Z,9.60
2023-04-19T09:14:33.268Z,9.50
2023-04-19T09:17:17.774Z,9.40
2023-04-19T09:19:50.148Z,9.40
2023-04-19T09:22:18.912Z,9.40
2023-04-19T09:25:22.808Z,9.40
2023-04-19T09:27:37.689Z,9.40
2023-04-19T09:30:17.590Z,9.30
2023-04-19T09:32:52.480Z,9.30
2023-04-19T09:35:20.620Z,9.20
2023-04-19T09:38:15.959Z,9.20
2023-04-19T09:40:44.427Z,9.30
2023-04-19T09:43:45.253Z,9.40
2023-04-19T09:46:03.708Z,9.50
2023-04-19T09:48:36.012Z,9.50
2023-04-19T09:51:08.795Z,9.60
2023-04-19T09:53:40.477Z,9.60
2023-04-19T09:56:09.034Z,9.60
2023-04-19T09:58:52.565Z,9.60
2023-04-19T10:01:23.915Z,9.50
2023-04-19T10:03:53.102Z,9.90
2023-04-19T10:08:55.267Z,10.90
2023-04-19T10:11:48.015Z,11.80
2023-04-19T10:14:48.395Z,12.30
2023-04-19T10:17:17.610Z,12.50
2023-04-19T10:19:46.991Z,12.20
2023-04-19T10:22:15.753Z,12.00
2023-04-19T10:25:04.067Z,11.60
2023-04-19T10:27:36.263Z,11.60
2023-04-19T10:30:07.742Z,11.90
2023-04-19T10:32:43.066Z,11.90
2023-04-19T10:35:13.415Z,12.30
2023-04-19T10:37:43.427Z,12.80
2023-04-19T10:40:11.664Z,12.80
2023-04-19T10:42:58.705Z,13.00
2023-04-19T10:45:33.532Z,13.60
2023-04-19T10:48:03.916Z,13.40
2023-04-19T10:50:55.135Z,13.50
2023-04-19T10:53:42.242Z,13.70
2023-04-19T10:56:10.499Z,14.10
2023-04-19T10:58:57.521Z,13.70
2023-04-19T11:01:55.361Z,13.50
2023-04-19T11:04:26.119Z,13.50
2023-04-19T11:06:54.760Z,13.60
2023-04-19T11:09:23.416Z,13.90
2023-04-19T11:11:52.073Z,14.40
2023-04-19T11:14:21.879Z,14.50
2023-04-19T11:16:50.574Z,14.20
2023-04-19T11:19:19.304Z,13.60
2023-04-19T11:21:47.971Z,13.10
2023-04-19T11:24:19.891Z,13.20
2023-04-19T11:26:48.452Z,13.40
2023-04-19T11:29:17.053Z,13.40
2023-04-19T11:31:46.024Z,14.10
2023-04-19T11:34:15.207Z,14.50
2023-04-19T11:36:50.383Z,14.50
2023-04-19T11:39:18.966Z,15.00
2023-04-19T11:41:48.649Z,14.70
2023-04-19T11:44:18.278Z,14.90
2023-04-19T11:46:59.085Z,15.30
2023-04-19T11:49:30.365Z,15.40
2023-04-19T11:52:05.286Z,14.80
2023-04-19T11:54:34.376Z,14.90
2023-04-19T11:57:06.735Z,14.80
2023-04-19T11:59:36.457Z,14.40
2023-04-19T12:02:08.847Z,14.30
2023-04-19T12:04:37.651Z,14.50
2023-04-19T12:07:06.967Z,14.30
2023-04-19T12:09:37.268Z,14.20
2023-04-19T12:12:05.636Z,14.60
2023-04-19T12:14:33.814Z,14.90
2023-04-19T12:17:12.238Z,14.80
2023-04-19T12:19:48.108Z,14.60
2023-04-19T12:22:17.472Z,14.50
2023-04-19T12:24:45.742Z,15.00
2023-04-19T12:27:14.066Z,15.30
2023-04-19T12:29:42.553Z,15.30
2023-04-19T12:32:12.245Z,15.30
2023-04-19T12:34:49.345Z,14.80
2023-04-19T12:37:18.092Z,14.90
2023-04-19T12:39:46.856Z,15.40
2023-04-19T12:42:15.510Z,15.20
2023-04-19T12:44:46.377Z,15.20
2023-04-19T12:47:19.959Z,15.10
2023-04-19T12:49:52.981Z,15.20
2023-04-19T12:52:24.068Z,15.20
2023-04-19T12:54:56.727Z,15.40
2023-04-19T12:57:28.466Z,15.40
2023-04-19T12:59:58.151Z,14.80
2023-04-19T13:02:29.334Z,14.80
2023-04-19T13:05:01.400Z,15.20
2023-04-19T13:07:30.873Z,15.40
2023-04-19T13:10:00.333Z,15.40
2023-04-19T13:12:31.416Z,15.60
2023-04-19T13:15:04.965Z,15.80
2023-04-19T13:17:35.860Z,15.20
2023-04-19T13:20:09.742Z,14.80
2023-04-19T13:22:52.652Z,14.90
2023-04-19T13:25:27.189Z,15.20
2023-04-19T13:30:43.181Z,15.30
2023-04-19T13:33:16.507Z,15.20
2023-04-19T13:35:48.355Z,15.60
2023-04-19T13:41:32.587Z,16.40
2023-04-19T13:44:00.801Z,16.70
2023-04-19T13:46:29.075Z,16.30
2023-04-19T13:48:58.300Z,16.00
2023-04-19T13:51:38.838Z,15.50
2023-04-19T13:54:18.633Z,15.30
2023-04-19T13:56:52.256Z,15.40
2023-04-19T13:59:21.143Z,15.70
2023-04-19T14:01:49.549Z,16.30
2023-04-19T14:04:18.303Z,16.00
2023-04-19T14:06:47.520Z,15.40
2023-04-19T14:09:16.213Z,15.50
2023-04-19T14:11:45.189Z,15.30
2023-04-19T14:14:14.909Z,15.10
2023-04-19T14:16:43.437Z,14.20
2023-04-19T14:19:12.022Z,13.70
2023-04-19T14:21:40.356Z,14.00
2023-04-19T14:24:09.326Z,14.30
2023-04-19T14:26:37.652Z,14.70
2023-04-19T14:29:05.833Z,14.60
2023-04-19T14:31:38.500Z,14.10
2023-04-19T14:34:09.476Z,13.50
2023-04-19T14:36:37.867Z,13.40
2023-04-19T14:39:06.118Z,13.90
2023-04-19T14:41:34.381Z,13.90
2023-04-19T14:44:02.640Z,13.50
2023-04-19T14:46:30.962Z,13.20
2023-04-19T14:49:04.836Z,12.90
2023-04-19T14:51:36.122Z,12.60
2023-04-19T14:54:04.426Z,12.40
2023-04-19T14:56:32.861Z,12.80
2023-04-19T14:59:01.179Z,13.20
2023-04-19T15:01:29.479Z,13.60
2023-04-19T15:03:57.847Z,13.90
2023-04-19T15:06:26.317Z,14.20
2023-04-19T15:08:54.706Z,14.40
2023-04-19T15:11:23.252Z,14.50
2023-04-19T15:13:51.441Z,14.50
2023-04-19T15:16:19.783Z,14.70
2023-04-19T15:18:48.012Z,14.50
2023-04-19T15:21:16.382Z,14.10
2023-04-19T15:23:45.815Z,13.40
2023-04-19T15:26:18.987Z,13.30
2023-04-19T15:28:47.538Z,13.10
2023-04-19T15:31:15.857Z,12.80
2023-04-19T15:33:44.192Z,12.60
2023-04-19T15:36:12.656Z,12.60
2023-04-19T15:38:42.614Z,12.60
2023-04-19T15:41:12.455Z,12.80
2023-04-19T15:43:41.105Z,13.00
2023-04-19T15:46:13.670Z,12.60
2023-04-19T15:48:42.278Z,12.30
2023-04-19T15:51:12.176Z,12.10
2023-04-19T15:53:40.476Z,12.10
2023-04-19T15:56:08.997Z,12.30
2023-04-19T15:58:38.032Z,12.50
2023-04-19T16:01:09.375Z,12.40
2023-04-19T16:03:38.221Z,12.30
2023-04-19T16:06:06.924Z,12.30
2023-04-19T16:08:35.601Z,12.40
2023-04-19T16:11:05.050Z,12.30
2023-04-19T16:13:35.501Z,12.20
2023-04-19T16:16:14.313Z,12.00
2023-04-19T16:18:43.306Z,11.80
2023-04-19T16:21:12.456Z,11.60
2023-04-19T16:23:40.806Z,11.50
2023-04-19T16:26:12.930Z,11.50
2023-04-19T16:28:41.867Z,11.60
2023-04-19T16:31:17.042Z,11.70
2023-04-19T16:33:46.342Z,11.80
2023-04-19T16:36:14.959Z,11.70
2023-04-19T16:38:44.028Z,11.70
2023-04-19T16:41:13.638Z,11.70
2023-04-19T16:43:42.337Z,11.70
2023-04-19T16:46:13.219Z,11.70
2023-04-19T16:48:45.412Z,11.80
2023-04-19T16:51:13.984Z,11.80
2023-04-19T16:53:43.023Z,11.80
2023-04-19T16:56:11.522Z,11.60
2023-04-19T16:58:39.825Z,11.50
2023-04-19T17:01:08.206Z,11.30
2023-04-19T17:03:36.775Z,11.30
2023-04-19T17:06:05.300Z,11.40
2023-04-19T17:08:33.681Z,11.30
2023-04-19T17:11:02.747Z,11.30
2023-04-19T17:13:35.866Z,11.20
2023-04-19T17:16:04.809Z,10.90
2023-04-19T17:19:24.096Z,10.80
2023-04-19T17:21:52.651Z,10.60
2023-04-19T17:24:21.085Z,10.40
2023-04-19T17:26:49.998Z,10.30
2023-04-19T17:29:18.853Z,10.50
2023-04-19T17:31:47.865Z,10.30
2023-04-19T17:34:16.675Z,10.20
2023-04-19T17:36:45.037Z,10.10
2023-04-19T17:39:13.710Z,10.10
2023-04-19T17:41:42.676Z,10.10
2023-04-19T17:44:11.097Z,10.10
2023-04-19T17:46:40.303Z,10.00
2023-04-19T17:49:08.862Z,9.90
2023-04-19T17:51:37.591Z,9.80
2023-04-19T17:54:06.119Z,9.70
2023-04-19T17:56:34.468Z,9.60
2023-04-19T17:59:05.196Z,9.60
2023-04-19T18:01:34.952Z,9.50
2023-04-19T18:04:03.474Z,9.50
2023-04-19T18:06:33.071Z,9.40
2023-04-19T18:09:01.925Z,9.30
2023-04-19T18:11:32.901Z,9.20
2023-04-19T18:14:01.147Z,9.20
2023-04-19T18:16:32.996Z,9.10
2023-04-19T18:19:02.628Z,9.10
2023-04-19T18:21:31.277Z,9.00
2023-04-19T18:24:00.224Z,8.90
2023-04-19T18:26:37.734Z,8.90
2023-04-19T18:29:06.364Z,8.80
2023-04-19T18:31:34.700Z,8.80
2023-04-19T18:34:03.696Z,8.70
2023-04-19T18:36:33.347Z,8.70
2023-04-19T18:39:02.035Z,8.70
2023-04-19T18:41:30.746Z,8.70
2023-04-19T18:44:29.989Z,8.60
2023-04-19T18:46:47.457Z,8.60
2023-04-19T18:49:16.395Z,8.50
2023-04-19T18:51:44.995Z,8.50
2023-04-19T18:54:13.688Z,8.50
2023-04-19T18:57:14.812Z,8.50
2023-04-19T18:59:30.709Z,8.50
2023-04-19T19:01:59.414Z,8.40
2023-04-19T19:04:48.009Z,8.40
2023-04-19T19:07:34.349Z,8.40
2023-04-19T19:10:17.137Z,8.40
2023-04-19T19:12:47.725Z,8.30
2023-04-19T19:15:24.569Z,8.30
2023-04-19T19:17:53.300Z,8.20
2023-04-19T19:20:21.849Z,8.20
2023-04-19T19:22:51.456Z,8.20
2023-04-19T19:25:20.323Z,8.10
2023-04-19T19:28:06.396Z,8.10
2023-04-19T19:30:41.024Z,8.10
2023-04-19T19:33:09.395Z,8.20
2023-04-19T19:35:39.620Z,8.20
2023-04-19T19:38:08.476Z,8.10
2023-04-19T19:40:46.792Z,8.20
2023-04-19T19:43:26.755Z,8.20
2023-04-19T19:45:54.940Z,8.00
2023-04-19T19:48:26.463Z,8.00
2023-04-19T19:51:20.813Z,8.00
2023-04-19T19:53:44.617Z,8.00
2023-04-19T19:56:20.958Z,8.00
2023-04-19T19:58:51.896Z,7.90
2023-04-19T20:01:22.949Z,7.90
2023-04-19T20:03:52.111Z,7.80
2023-04-19T20:08:52.142Z,7.70
2023-04-19T20:11:20.643Z,7.70
2023-04-19T20:13:48.884Z,7.70
2023-04-19T20:16:19.604Z,7.70
2023-04-19T20:18:50.413Z,7.70
2023-04-19T20:21:19.265Z,7.70
2023-04-19T20:23:47.408Z,7.70
2023-04-19T20:26:15.888Z,7.60
2023-04-19T20:28:44.044Z,7.50
2023-04-19T20:31:15.537Z,7.40
2023-04-19T20:33:43.719Z,7.40
2023-04-19T20:36:18.053Z,7.40
2023-04-19T20:38:46.394Z,7.40
2023-04-19T20:41:14.535Z,7.40
2023-04-19T20:43:42.799Z,7.40
2023-04-19T20:46:11.444Z,7.40
2023-04-19T20:48:39.809Z,7.30
2023-04-19T20:51:08.076Z,7.30
2023-04-19T20:53:36.307Z,7.30
2023-04-19T20:56:04.974Z,7.30
2023-04-19T20:58:34.690Z,7.20
2023-04-19T21:01:02.906Z,7.20
2023-04-19T21:03:31.381Z,7.20
2023-04-19T21:05:59.848Z,7.10
2023-04-19T21:08:28.045Z,6.90
2023-04-19T21:10:56.293Z,6.70
2023-04-19T21:13:24.421Z,6.40
2023-04-19T21:15:52.669Z,6.30
2023-04-19T21:18:21.813Z,6.20
2023-04-19T21:20:50.103Z,6.10
2023-04-19T21:23:18.704Z,5.90
2023-04-19T21:25:47.203Z,5.70
2023-04-19T21:28:15.457Z,5.70
2023-04-19T21:30:45.016Z,5.70
2023-04-19T21:33:13.315Z,5.60
2023-04-19T21:35:41.700Z,5.50
2023-04-19T21:38:10.364Z,5.40
2023-04-19T21:40:38.494Z,5.30
2023-04-19T21:43:07.389Z,5.20
2023-04-19T21:45:35.598Z,5.10
2023-04-19T21:48:04.140Z,5.00
2023-04-19T21:50:32.649Z,5.00
2023-04-19T21:53:00.948Z,5.00
2023-04-19T21:55:29.124Z,4.90
2023-04-19T21:57:57.350Z,4.80
2023-04-19T22:00:26.285Z,4.80
2023-04-19T22:02:54.697Z,4.90
2023-04-19T22:05:23.280Z,4.90
2023-04-19T22:07:51.562Z,4.70
2023-04-19T22:10:19.816Z,4.60
2023-04-19T22:12:58.040Z,4.50
2023-04-19T22:15:27.843Z,4.40
2023-04-19T22:17:56.068Z,4.40
2023-04-19T22:20:25.350Z,4.40
2023-04-19T22:22:53.658Z,4.30
2023-04-19T22:25:21.966Z,4.30
2023-04-19T22:27:50.314Z,4.30
2023-04-19T22:30:18.551Z,4.20
2023-04-19T22:32:46.767Z,4.10
2023-04-19T22:35:15.196Z,4.00
2023-04-19T22:37:43.807Z,4.10
2023-04-19T22:40:12.314Z,4.10
2023-04-19T22:42:40.922Z,4.10
2023-04-19T22:45:09.447Z,3.90
2023-04-19T22:47:38.551Z,3.80
2023-04-19T22:50:06.991Z,3.70
2023-04-19T22:52:35.910Z,3.60
2023-04-19T22:55:04.244Z,3.60
2023-04-19T22:57:32.393Z,3.60
2023-04-19T23:00:02.250Z,3.70
2023-04-19T23:02:30.909Z,3.70
2023-04-19T23:05:00.000Z,3.80
2023-04-19T23:07:30.147Z,3.80
2023-04-19T23:09:58.590Z,3.90
2023-04-19T23:12:26.812Z,4.00
2023-04-19T23:14:55.267Z,4.00
2023-04-19T23:17:23.460Z,4.00
2023-04-19T23:19:51.711Z,4.00
2023-04-19T23:22:19.844Z,4.00
2023-04-19T23:24:48.088Z,4.00
2023-04-19T23:27:16.217Z,3.90
2023-04-19T23:29:44.509Z,3.90
2023-04-19T23:32:12.877Z,3.90
2023-04-19T23:34:41.054Z,3.90
2023-04-19T23:37:10.144Z,3.90
2023-04-19T23:39:38.647Z,3.80
2023-04-19T23:42:06.886Z,3.70
2023-04-19T23:44:35.069Z,3.70
2023-04-19T23:47:06.137Z,3.50
2023-04-19T23:49:34.756Z,3.40
2023-04-19T23:52:08.079Z,3.30
2023-04-19T23:54:40.926Z,3.20
2023-04-19T23:57:09.194Z,3.10
2023-04-19T23:59:37.833Z,3.00
